createdAt,value
2023-05-06T00:00:03.696Z,12.82
2023-05-06T00:02:30.404Z,12.79
2023-05-06T00:04:57.159Z,12.68
2023-05-06T00:07:23.881Z,12.55
2023-05-06T00:09:50.490Z,12.49
2023-05-06T00:12:19.272Z,12.51
2023-05-06T00:14:45.787Z,12.49
2023-05-06T00:17:12.333Z,12.49
2023-05-06T00:19:39.028Z,12.66
2023-05-06T00:22:05.800Z,12.69
2023-05-06T00:24:32.427Z,12.67
2023-05-06T00:26:58.947Z,12.64
2023-05-06T00:29:25.612Z,12.72
2023-05-06T00:31:52.175Z,12.96
2023-05-06T00:34:18.767Z,12.97
2023-05-06T00:36:45.373Z,13.05
2023-05-06T00:39:11.911Z,12.89
2023-05-06T00:41:38.467Z,12.95
2023-05-06T00:44:05.027Z,13.02
2023-05-06T00:46:31.545Z,12.89
2023-05-06T00:48:58.219Z,12.85
2023-05-06T00:51:26.177Z,12.56
2023-05-06T00:53:52.952Z,12.51
2023-05-06T00:56:20.877Z,12.90
2023-05-06T00:58:48.250Z,12.96
2023-05-06T01:01:14.955Z,12.93
2023-05-06T01:03:41.648Z,12.71
2023-05-06T01:06:19.428Z,12.94
2023-05-06T01:09:01.001Z,12.88
2023-05-06T01:11:59.669Z,12.83
2023-05-06T01:14:39.588Z,12.96
2023-05-06T01:17:11.238Z,12.99
2023-05-06T01:20:06.322Z,12.90
2023-05-06T01:22:36.609Z,12.72
2023-05-06T01:25:03.220Z,12.90
2023-05-06T01:27:29.763Z,12.69
2023-05-06T01:29:57.620Z,12.99
2023-05-06T01:32:52.067Z,12.91
2023-05-06T01:35:32.259Z,12.72
2023-05-06T01:38:01.852Z,12.78
2023-05-06T01:40:30.341Z,12.68
2023-05-06T01:42:57.583Z,12.52
2023-05-06T01:45:27.715Z,12.57
2023-05-06T01:47:54.710Z,12.64
2023-05-06T01:50:21.643Z,12.52
2023-05-06T01:53:00.011Z,12.54
2023-05-06T01:55:27.110Z,12.43
2023-05-06T01:57:59.291Z,12.66
2023-05-06T02:00:26.357Z,12.74
2023-05-06T02:02:53.079Z,12.61
2023-05-06T02:05:19.863Z,12.52
2023-05-06T02:07:46.407Z,12.46
2023-05-06T02:10:12.977Z,12.34
2023-05-06T02:12:39.554Z,12.54
2023-05-06T02:15:06.737Z,12.37
2023-05-06T02:17:35.871Z,12.38
2023-05-06T02:20:02.406Z,12.32
2023-05-06T02:22:28.919Z,12.40
2023-05-06T02:24:55.451Z,12.27
2023-05-06T02:27:24.625Z,12.51
2023-05-06T02:29:51.061Z,12.46
2023-05-06T02:32:17.651Z,12.29
2023-05-06T02:34:44.233Z,12.05
2023-05-06T02:37:10.820Z,12.09
2023-05-06T02:39:37.363Z,12.16
2023-05-06T02:42:04.114Z,12.10
2023-05-06T02:44:30.784Z,12.14
2023-05-06T02:46:57.311Z,12.10
2023-05-06T02:49:23.875Z,12.09
2023-05-06T02:51:50.395Z,11.97
2023-05-06T02:54:16.939Z,12.08
2023-05-06T02:56:43.708Z,12.35
2023-05-06T02:59:10.297Z,12.27
2023-05-06T03:01:36.886Z,12.13
2023-05-06T03:04:03.755Z,11.97
2023-05-06T03:06:31.564Z,12.19
2023-05-06T03:08:58.098Z,12.43
2023-05-06T03:11:24.689Z,12.28
2023-05-06T03:13:51.354Z,12.26
2023-05-06T03:16:17.904Z,12.06
2023-05-06T03:18:44.811Z,12.03
2023-05-06T03:21:12.610Z,12.04
2023-05-06T03:23:39.142Z,12.05
2023-05-06T03:26:06.034Z,12.07
2023-05-06T03:28:32.672Z,12.26
2023-05-06T03:30:59.451Z,12.19
2023-05-06T03:33:25.998Z,12.21
2023-05-06T03:35:52.546Z,12.19
2023-05-06T03:38:19.143Z,12.33
2023-05-06T03:40:46.074Z,12.69
2023-05-06T03:43:12.748Z,12.58
2023-05-06T03:45:39.285Z,12.77
2023-05-06T03:48:05.927Z,12.51
2023-05-06T03:50:32.593Z,12.53
2023-05-06T03:52:59.339Z,12.58
2023-05-06T03:55:25.932Z,12.82
2023-05-06T03:57:52.578Z,12.93
2023-05-06T04:00:19.339Z,12.97
2023-05-06T04:02:45.918Z,12.87
2023-05-06T04:05:12.691Z,12.70
2023-05-06T04:07:39.371Z,12.63
2023-05-06T04:10:06.734Z,12.61
2023-05-06T04:12:34.356Z,12.65
2023-05-06T04:15:01.103Z,12.98
2023-05-06T04:17:27.715Z,12.75
2023-05-06T04:19:54.287Z,12.58
2023-05-06T04:22:20.927Z,12.74
2023-05-06T04:24:47.607Z,12.66
2023-05-06T04:27:15.095Z,12.53
2023-05-06T04:29:41.699Z,12.47
2023-05-06T04:32:10.315Z,12.43
2023-05-06T04:34:37.034Z,12.48
2023-05-06T04:37:03.751Z,12.53
2023-05-06T04:39:32.074Z,12.61
2023-05-06T04:41:58.647Z,12.53
2023-05-06T04:44:25.244Z,12.61
2023-05-06T04:46:51.785Z,13.00
2023-05-06T04:49:18.311Z,12.80
2023-05-06T04:51:44.857Z,12.77
2023-05-06T04:54:11.369Z,12.79
2023-05-06T04:56:38.188Z,12.81
2023-05-06T04:59:04.700Z,12.91
2023-05-06T05:01:31.284Z,12.99
2023-05-06T05:03:57.795Z,13.45
2023-05-06T05:06:24.337Z,13.57
2023-05-06T05:08:50.986Z,13.54
2023-05-06T05:11:17.574Z,13.44
2023-05-06T05:13:44.193Z,13.77
2023-05-06T05:16:10.841Z,13.60
2023-05-06T05:18:37.482Z,13.50
2023-05-06T05:21:04.302Z,13.75
2023-05-06T05:23:30.991Z,13.99
2023-05-06T05:25:57.530Z,14.04
2023-05-06T05:28:24.115Z,13.96
2023-05-06T05:30:50.732Z,14.08
2023-05-06T05:33:17.371Z,13.96
2023-05-06T05:35:44.028Z,14.14
2023-05-06T05:38:10.971Z,14.14
2023-05-06T05:40:37.554Z,14.00
2023-05-06T05:43:04.129Z,14.10
2023-05-06T05:45:30.652Z,14.14
2023-05-06T05:47:57.242Z,14.12
2023-05-06T05:50:23.996Z,14.26
2023-05-06T05:52:50.505Z,14.18
2023-05-06T05:55:17.056Z,14.21
2023-05-06T05:57:43.610Z,14.16
2023-05-06T06:00:12.267Z,14.19
2023-05-06T06:02:40.224Z,14.12
2023-05-06T06:05:07.700Z,14.27
2023-05-06T06:07:34.374Z,14.31
2023-05-06T06:10:00.976Z,14.26
2023-05-06T06:12:27.530Z,14.41
2023-05-06T06:14:54.037Z,14.35
2023-05-06T06:17:20.636Z,14.25
2023-05-06T06:19:47.257Z,14.31
2023-05-06T06:22:13.832Z,14.15
2023-05-06T06:24:41.026Z,14.06
2023-05-06T06:27:07.621Z,14.10
2023-05-06T06:29:34.171Z,13.99
2023-05-06T06:32:03.940Z,14.05
2023-05-06T06:34:30.730Z,14.19
2023-05-06T06:36:57.266Z,14.46
2023-05-06T06:39:24.969Z,14.54
2023-05-06T06:41:51.550Z,14.43
2023-05-06T06:44:18.090Z,14.63
2023-05-06T06:46:45.007Z,14.62
2023-05-06T06:49:11.597Z,14.88
2023-05-06T06:51:38.251Z,15.14
2023-05-06T06:54:04.866Z,15.09
2023-05-06T06:56:31.922Z,15.11
2023-05-06T06:58:58.488Z,15.39
2023-05-06T07:01:25.187Z,15.47
2023-05-06T07:03:51.833Z,15.49
2023-05-06T07:06:18.385Z,15.27
2023-05-06T07:08:44.897Z,15.40
2023-05-06T07:11:12.161Z,15.21
2023-05-06T07:13:38.664Z,15.04
2023-05-06T07:16:05.297Z,15.28
2023-05-06T07:18:31.972Z,15.43
2023-05-06T07:20:58.522Z,15.40
2023-05-06T07:23:25.074Z,15.33
2023-05-06T07:25:51.605Z,15.51
2023-05-06T07:28:18.172Z,15.24
2023-05-06T07:30:45.577Z,15.15
2023-05-06T07:33:12.240Z,14.90
2023-05-06T07:35:38.801Z,14.91
2023-05-06T07:38:05.397Z,14.96
2023-05-06T07:40:32.128Z,15.25
2023-05-06T07:43:12.110Z,15.32
2023-05-06T07:45:38.728Z,15.58
2023-05-06T07:48:06.016Z,15.53
2023-05-06T07:50:32.823Z,15.55
2023-05-06T07:53:00.202Z,15.16
2023-05-06T07:55:26.785Z,15.02
2023-05-06T07:57:53.409Z,15.22
2023-05-06T08:00:20.178Z,15.25
2023-05-06T08:02:47.812Z,15.20
2023-05-06T08:05:15.230Z,14.96
2023-05-06T08:07:42.496Z,14.76
2023-05-06T08:10:10.197Z,14.80
2023-05-06T08:12:37.437Z,14.69
2023-05-06T08:15:04.346Z,14.86
2023-05-06T08:17:30.995Z,14.86
2023-05-06T08:19:57.549Z,14.82
2023-05-06T08:22:24.264Z,14.71
2023-05-06T08:24:50.975Z,14.62
2023-05-06T08:27:17.525Z,14.55
2023-05-06T08:29:44.031Z,14.56
2023-05-06T08:32:10.955Z,14.30
2023-05-06T08:34:37.599Z,14.47
2023-05-06T08:37:04.290Z,14.40
2023-05-06T08:39:31.515Z,14.49
2023-05-06T08:41:59.545Z,14.65
2023-05-06T08:44:26.721Z,14.84
2023-05-06T08:46:53.542Z,14.52
2023-05-06T08:49:20.104Z,14.61
2023-05-06T08:51:50.671Z,14.58
2023-05-06T08:54:17.936Z,14.83
2023-05-06T08:56:56.322Z,14.77
2023-05-06T08:59:25.724Z,14.46
2023-05-06T09:01:53.398Z,14.28
2023-05-06T09:04:20.086Z,14.14
2023-05-06T09:06:46.854Z,14.27
2023-05-06T09:09:14.857Z,14.68
2023-05-06T09:11:41.427Z,15.13
2023-05-06T09:14:11.129Z,15.37
2023-05-06T09:16:39.186Z,15.20
2023-05-06T09:19:06.247Z,15.02
2023-05-06T09:21:37.764Z,14.79
2023-05-06T09:24:06.276Z,14.57
2023-05-06T09:26:34.393Z,14.49
2023-05-06T09:29:01.342Z,14.54
2023-05-06T09:31:29.189Z,14.60
2023-05-06T09:33:57.264Z,14.67
2023-05-06T09:36:25.893Z,14.93
2023-05-06T09:38:54.022Z,15.18
2023-05-06T09:41:22.834Z,15.12
2023-05-06T09:43:51.044Z,14.88
2023-05-06T09:46:17.784Z,15.16
2023-05-06T09:48:45.972Z,15.23
2023-05-06T09:51:13.262Z,15.33
2023-05-06T09:53:39.867Z,15.47
2023-05-06T09:56:07.574Z,15.15
2023-05-06T09:58:38.252Z,15.07
2023-05-06T10:01:06.785Z,15.31
2023-05-06T10:03:34.265Z,15.25
2023-05-06T10:06:02.273Z,15.25
2023-05-06T10:08:29.549Z,15.10
2023-05-06T10:10:57.014Z,15.12
2023-05-06T10:13:26.888Z,15.24
2023-05-06T10:15:54.239Z,15.38
2023-05-06T10:18:21.748Z,15.10
2023-05-06T10:20:49.524Z,15.15
2023-05-06T10:23:28.394Z,15.44
2023-05-06T10:25:57.718Z,15.49
2023-05-06T10:28:30.981Z,15.42
2023-05-06T10:30:59.393Z,15.63
2023-05-06T10:33:27.199Z,15.25
2023-05-06T10:36:08.729Z,15.56
2023-05-06T10:38:41.251Z,15.47
2023-05-06T10:41:09.686Z,16.06
2023-05-06T10:43:41.541Z,15.99
2023-05-06T10:46:10.797Z,16.10
2023-05-06T10:48:39.957Z,16.01
2023-05-06T10:51:15.759Z,15.86
2023-05-06T10:54:04.219Z,15.54
2023-05-06T10:56:33.249Z,15.38
2023-05-06T10:59:09.648Z,15.03
2023-05-06T11:01:37.745Z,15.06
2023-05-06T11:04:13.151Z,15.09
2023-05-06T11:06:42.566Z,15.21
2023-05-06T11:09:17.319Z,14.96
2023-05-06T11:12:05.128Z,15.14
2023-05-06T11:14:36.868Z,15.39
2023-05-06T11:17:28.770Z,15.34
2023-05-06T11:20:26.529Z,15.19
2023-05-06T11:22:54.117Z,15.22
2023-05-06T11:25:40.092Z,15.15
2023-05-06T11:28:15.435Z,15.48
2023-05-06T11:30:44.557Z,15.73
2023-05-06T11:33:17.657Z,16.06
2023-05-06T11:35:45.127Z,15.92
2023-05-06T11:38:12.241Z,16.11
2023-05-06T11:40:41.624Z,16.29
2023-05-06T11:43:15.493Z,15.84
2023-05-06T11:45:46.787Z,15.88
2023-05-06T11:48:15.057Z,15.92
2023-05-06T11:50:48.990Z,16.32
2023-05-06T11:53:23.470Z,16.41
2023-05-06T11:55:52.903Z,16.31
2023-05-06T11:58:29.425Z,16.50
2023-05-06T12:00:58.446Z,17.03
2023-05-06T12:03:26.711Z,16.83
2023-05-06T12:05:53.594Z,16.70
2023-05-06T12:08:27.868Z,16.76
2023-05-06T12:10:58.616Z,17.05
2023-05-06T12:13:25.402Z,16.95
2023-05-06T12:15:55.092Z,16.42
2023-05-06T12:18:23.781Z,16.66
2023-05-06T12:20:50.453Z,16.42
2023-05-06T12:23:17.857Z,16.59
2023-05-06T12:25:49.105Z,16.84
2023-05-06T12:28:17.512Z,16.45
2023-05-06T12:30:44.807Z,16.22
2023-05-06T12:33:12.401Z,16.67
2023-05-06T12:35:40.010Z,16.86
2023-05-06T12:38:13.583Z,17.20
2023-05-06T12:40:41.326Z,16.98
2023-05-06T12:43:08.259Z,16.66
2023-05-06T12:45:35.187Z,16.56
2023-05-06T12:48:02.968Z,16.25
2023-05-06T12:50:37.144Z,16.65
2023-05-06T12:53:05.167Z,17.03
2023-05-06T12:55:36.223Z,16.83
2023-05-06T12:58:03.940Z,17.12
2023-05-06T13:00:30.609Z,17.87
2023-05-06T13:02:57.209Z,18.32
2023-05-06T13:05:23.815Z,18.44
2023-05-06T13:07:51.176Z,17.25
2023-05-06T13:10:17.709Z,16.69
2023-05-06T13:12:44.260Z,17.06
2023-05-06T13:15:10.975Z,17.56
2023-05-06T13:17:37.687Z,17.63
2023-05-06T13:20:05.452Z,18.06
2023-05-06T13:22:40.308Z,18.03
2023-05-06T13:25:11.531Z,18.16
2023-05-06T13:27:38.316Z,16.84
2023-05-06T13:30:05.791Z,16.65
2023-05-06T13:32:33.054Z,16.41
2023-05-06T13:34:59.788Z,16.30
2023-05-06T13:37:26.352Z,16.20
2023-05-06T13:39:53.010Z,16.47
2023-05-06T13:42:19.625Z,16.41
2023-05-06T13:44:46.204Z,16.08
2023-05-06T13:47:12.726Z,15.89
2023-05-06T13:49:39.227Z,15.91
2023-05-06T13:52:08.012Z,16.24
2023-05-06T13:54:34.984Z,16.89
2023-05-06T13:57:01.484Z,17.21
2023-05-06T13:59:28.016Z,17.64
2023-05-06T14:02:04.140Z,18.00
2023-05-06T14:04:32.210Z,16.83
2023-05-06T14:06:59.216Z,16.01
2023-05-06T14:09:25.762Z,15.61
2023-05-06T14:11:52.254Z,15.48
2023-05-06T14:14:18.788Z,15.46
2023-05-06T14:16:45.592Z,15.72
2023-05-06T14:19:12.140Z,15.85
2023-05-06T14:21:38.673Z,15.99
2023-05-06T14:24:07.571Z,15.95
2023-05-06T14:26:34.604Z,15.90
2023-05-06T14:29:01.208Z,16.24
2023-05-06T14:31:29.524Z,15.92
2023-05-06T14:33:56.401Z,15.36
2023-05-06T14:36:22.955Z,15.31
2023-05-06T14:38:49.492Z,15.10
2023-05-06T14:41:16.242Z,15.13
2023-05-06T14:43:42.805Z,16.72
2023-05-06T14:46:09.458Z,18.19
2023-05-06T14:48:36.025Z,19.09
2023-05-06T14:51:02.557Z,19.66
2023-05-06T14:53:29.191Z,19.18
2023-05-06T14:55:56.506Z,18.13
2023-05-06T14:58:23.185Z,16.77
2023-05-06T15:00:49.889Z,17.27
2023-05-06T15:03:16.631Z,16.35
2023-05-06T15:05:43.325Z,15.75
2023-05-06T15:08:10.145Z,15.60
2023-05-06T15:10:36.815Z,15.36
2023-05-06T15:13:03.715Z,15.25
2023-05-06T15:15:30.393Z,15.06
2023-05-06T15:17:56.985Z,14.84
2023-05-06T15:20:23.614Z,14.72
2023-05-06T15:22:50.194Z,14.97
2023-05-06T15:25:26.559Z,14.71
2023-05-06T15:27:58.340Z,14.69
2023-05-06T15:30:24.869Z,14.90
2023-05-06T15:32:51.474Z,14.93
2023-05-06T15:35:18.020Z,14.87
2023-05-06T15:37:44.546Z,15.57
2023-05-06T15:40:13.915Z,15.39
2023-05-06T15:42:40.753Z,15.42
2023-05-06T15:45:07.809Z,15.25
2023-05-06T15:47:34.411Z,15.14
2023-05-06T15:50:01.663Z,15.03
2023-05-06T15:52:42.686Z,14.79
2023-05-06T15:55:09.950Z,14.98
2023-05-06T15:57:36.602Z,14.95
2023-05-06T16:00:05.144Z,15.07
2023-05-06T16:02:32.714Z,14.92
2023-05-06T16:04:59.662Z,14.60
2023-05-06T16:07:27.701Z,14.52
2023-05-06T16:09:54.208Z,14.80
2023-05-06T16:12:20.777Z,15.03
2023-05-06T16:14:47.359Z,15.30
2023-05-06T16:17:15.720Z,15.66
2023-05-06T16:19:42.273Z,15.67
2023-05-06T16:22:08.842Z,15.38
2023-05-06T16:24:35.368Z,15.58
2023-05-06T16:27:02.400Z,15.66
2023-05-06T16:29:28.954Z,15.66
2023-05-06T16:31:55.638Z,15.34
2023-05-06T16:34:22.367Z,15.29
2023-05-06T16:36:49.248Z,14.91
2023-05-06T16:39:15.884Z,14.91
2023-05-06T16:41:42.572Z,14.46
2023-05-06T16:44:09.093Z,14.33
2023-05-06T16:46:35.633Z,14.30
2023-05-06T16:49:03.809Z,14.32
2023-05-06T16:51:31.200Z,14.27
2023-05-06T16:53:57.748Z,14.18
2023-05-06T16:56:25.362Z,13.93
2023-05-06T16:58:53.122Z,13.92
2023-05-06T17:01:19.788Z,13.75
2023-05-06T17:03:46.413Z,13.66
2023-05-06T17:06:13.382Z,13.71
2023-05-06T17:08:40.062Z,13.74
2023-05-06T17:11:06.874Z,13.77
2023-05-06T17:13:34.125Z,13.68
2023-05-06T17:16:00.974Z,13.64
2023-05-06T17:18:27.642Z,13.62
2023-05-06T17:20:56.713Z,13.58
2023-05-06T17:23:24.499Z,13.60
2023-05-06T17:25:51.420Z,13.27
2023-05-06T17:28:18.883Z,13.32
2023-05-06T17:30:45.914Z,13.33
2023-05-06T17:33:12.741Z,13.29
2023-05-06T17:35:39.450Z,13.24
2023-05-06T17:38:06.101Z,13.35
2023-05-06T17:40:32.656Z,13.28
2023-05-06T17:42:59.433Z,13.36
2023-05-06T17:45:28.193Z,13.30
2023-05-06T17:47:55.158Z,13.15
2023-05-06T17:50:22.416Z,13.13
2023-05-06T17:52:51.103Z,13.02
2023-05-06T17:55:17.913Z,13.07
2023-05-06T17:57:44.727Z,13.01
2023-05-06T18:00:11.768Z,12.96
2023-05-06T18:02:38.517Z,12.90
2023-05-06T18:05:06.495Z,12.92
2023-05-06T18:07:35.759Z,12.90
2023-05-06T18:10:02.349Z,12.86
2023-05-06T18:12:29.050Z,12.78
2023-05-06T18:14:57.474Z,12.60
2023-05-06T18:17:24.109Z,12.54
2023-05-06T18:19:50.793Z,12.29
2023-05-06T18:22:17.390Z,12.39
2023-05-06T18:24:44.149Z,12.32
2023-05-06T18:27:10.896Z,12.20
2023-05-06T18:29:37.432Z,12.14
2023-05-06T18:32:06.515Z,12.20
2023-05-06T18:34:33.173Z,12.23
2023-05-06T18:36:59.668Z,12.13
2023-05-06T18:39:26.513Z,12.08
2023-05-06T18:41:53.046Z,12.05
2023-05-06T18:44:19.606Z,11.94
2023-05-06T18:46:46.223Z,11.97
2023-05-06T18:49:14.088Z,11.86
2023-05-06T18:51:40.914Z,11.89
2023-05-06T18:54:07.642Z,11.84
2023-05-06T18:56:35.510Z,11.79
2023-05-06T18:59:02.139Z,11.70
2023-05-06T19:01:28.833Z,11.67
2023-05-06T19:03:56.700Z,11.70
2023-05-06T19:06:23.472Z,11.71
2023-05-06T19:08:50.128Z,11.66
2023-05-06T19:11:18.942Z,11.72
2023-05-06T19:13:46.285Z,11.75
2023-05-06T19:16:13.955Z,11.65
2023-05-06T19:18:40.643Z,11.72
2023-05-06T19:21:10.015Z,11.66
2023-05-06T19:23:36.742Z,11.40
2023-05-06T19:26:06.278Z,11.58
2023-05-06T19:28:33.452Z,11.67
2023-05-06T19:31:00.018Z,11.73
2023-05-06T19:33:26.963Z,11.58
2023-05-06T19:35:53.504Z,11.67
2023-05-06T19:38:20.483Z,11.56
2023-05-06T19:40:47.026Z,11.56
2023-05-06T19:43:13.623Z,11.52
2023-05-06T19:45:40.235Z,11.48
2023-05-06T19:48:08.582Z,11.36
2023-05-06T19:50:35.438Z,11.04
2023-05-06T19:53:02.066Z,11.20
2023-05-06T19:55:28.627Z,10.97
2023-05-06T19:57:58.884Z,11.09
2023-05-06T20:00:28.017Z,11.04
2023-05-06T20:02:56.507Z,10.91
2023-05-06T20:05:23.642Z,11.10
2023-05-06T20:07:51.281Z,11.22
2023-05-06T20:10:17.810Z,10.98
2023-05-06T20:12:44.468Z,11.14
2023-05-06T20:15:11.566Z,11.36
2023-05-06T20:17:38.541Z,11.16
2023-05-06T20:20:09.733Z,11.17
2023-05-06T20:22:37.490Z,11.30
2023-05-06T20:25:13.129Z,11.33
2023-05-06T20:27:40.035Z,11.27
2023-05-06T20:30:08.113Z,11.26
2023-05-06T20:32:34.936Z,11.18
2023-05-06T20:35:01.510Z,11.18
2023-05-06T20:37:28.694Z,11.10
2023-05-06T20:39:55.346Z,11.01
2023-05-06T20:42:21.887Z,11.18
2023-05-06T20:44:51.270Z,11.20
2023-05-06T20:47:17.737Z,11.19
2023-05-06T20:49:44.317Z,10.78
2023-05-06T20:52:14.474Z,10.91
2023-05-06T20:54:45.290Z,10.92
2023-05-06T20:57:13.872Z,10.80
2023-05-06T20:59:40.391Z,10.97
2023-05-06T21:02:07.078Z,10.45
2023-05-06T21:04:33.767Z,10.34
2023-05-06T21:07:00.395Z,10.27
2023-05-06T21:09:28.037Z,10.28
2023-05-06T21:11:55.654Z,10.52
2023-05-06T21:14:24.718Z,10.63
2023-05-06T21:16:52.111Z,10.81
2023-05-06T21:19:22.234Z,10.50
2023-05-06T21:21:48.820Z,10.75
2023-05-06T21:24:15.745Z,10.85
2023-05-06T21:26:42.349Z,10.97
2023-05-06T21:29:08.900Z,10.99
2023-05-06T21:31:35.587Z,10.69
2023-05-06T21:34:03.465Z,10.80
2023-05-06T21:36:29.998Z,10.60
2023-05-06T21:39:05.532Z,10.45
2023-05-06T21:41:32.103Z,10.30
2023-05-06T21:43:58.645Z,10.53
2023-05-06T21:46:25.488Z,10.67
2023-05-06T21:48:52.149Z,10.84
2023-05-06T21:51:18.683Z,10.86
2023-05-06T21:53:49.721Z,10.71
2023-05-06T21:56:17.431Z,10.71
2023-05-06T21:58:44.130Z,10.62
2023-05-06T22:01:10.822Z,10.66
2023-05-06T22:03:37.639Z,10.48
2023-05-06T22:06:04.904Z,10.61
2023-05-06T22:08:31.679Z,10.42
2023-05-06T22:10:58.210Z,10.49
2023-05-06T22:13:26.795Z,10.43
2023-05-06T22:15:53.957Z,10.35
2023-05-06T22:18:20.689Z,10.25
2023-05-06T22:20:49.216Z,10.13
2023-05-06T22:23:15.831Z,10.32
2023-05-06T22:25:42.360Z,10.08
2023-05-06T22:28:08.934Z,10.41
2023-05-06T22:30:35.637Z,10.30
2023-05-06T22:33:02.225Z,10.42
2023-05-06T22:35:28.852Z,10.04
2023-05-06T22:37:55.400Z,9.84
2023-05-06T22:40:21.943Z,9.89
2023-05-06T22:42:48.468Z,9.96
2023-05-06T22:45:15.056Z,10.08
2023-05-06T22:47:41.683Z,10.21
2023-05-06T22:50:08.966Z,10.26
2023-05-06T22:52:35.534Z,10.22
2023-05-06T22:55:02.601Z,10.23
2023-05-06T22:57:29.161Z,10.27
2023-05-06T22:59:55.711Z,10.04
2023-05-06T23:02:22.282Z,9.86
2023-05-06T23:04:48.933Z,9.82
2023-05-06T23:07:15.807Z,10.03
2023-05-06T23:09:42.341Z,9.93
2023-05-06T23:12:08.921Z,10.05
2023-05-06T23:14:35.542Z,9.97
2023-05-06T23:17:02.176Z,10.02
2023-05-06T23:19:38.638Z,9.84
2023-05-06T23:22:07.582Z,9.82
2023-05-06T23:24:34.117Z,9.85
2023-05-06T23:27:01.211Z,9.72
2023-05-06T23:29:27.788Z,9.65
2023-05-06T23:31:54.554Z,9.72
2023-05-06T23:34:21.110Z,9.95
2023-05-06T23:36:50.966Z,9.95
2023-05-06T23:39:17.652Z,9.89
2023-05-06T23:41:47.019Z,9.88
2023-05-06T23:44:13.445Z,9.88
2023-05-06T23:46:40.182Z,9.84
2023-05-06T23:49:06.818Z,9.81
2023-05-06T23:51:33.473Z,9.87
2023-05-06T23:53:59.976Z,9.85
2023-05-06T23:56:26.510Z,9.58
2023-05-06T23:58:53.038Z,9.64
